Terminal Aerodrome Forecast
Issued by NWS Jackson, MS

Home | Current Version | Previous Version | Text Only | Print | Product List | Glossary On
Versions: 1 2 3 4 5 6 7 8 9 10 11 12 13 14 15
821
FTUS44 KJAN 202344
TAFHBG
TAF
KHBG 202344Z 2100/2124 18005KT P6SM SCT250
     FM210400 17005KT 1SM BR BKN004 OVC130
     FM210700 17006KT 5SM BR VCTS BKN009 OVC025CB
     FM210930 22015G35KT 1SM +TSRA BR BKN004CB OVC025
     FM211200 14005KT 3SM -TSRA BR BKN008CB OVC050
     FM211500 18006KT 3SM BR BKN015 BKN025
     FM211900 19007KT P6SM SCT025=

USA.gov is the U.S. government's official web portal to all federal, state and local government web resources and services.